ADDS METAR Data INFO
IDs: Format: Raw Decoded Include TAF

Data at: 0159 UTC 17 Oct 2017

KPTS 170155Z AUTO 00000KT 10SM CLR 11/09 A3028 RMK AO2 T01050090
KPTS 170135Z AUTO 00000KT 10SM CLR 11/09 A3029 RMK AO2 T01060085
KPTS 170115Z AUTO 00000KT 10SM CLR 11/09 A3028 RMK AO2 T01120089
KPTS 170055Z AUTO 00000KT 10SM CLR 12/09 A3028 RMK AO2 T01190088
KPTS 170035Z AUTO 00000KT 10SM CLR 13/09 A3028 RMK AO2 T01330091
KPTS 170015Z AUTO 00000KT 10SM CLR 14/07 A3028 RMK AO2 T01400073
KPTS 162355Z AUTO 00000KT 10SM CLR 15/07 A3028 RMK AO2 T01510069
KPTS 162335Z AUTO 00000KT 10SM CLR 17/07 A3028 RMK AO2 T01650069
KPTS 162315Z AUTO 00000KT 10SM CLR 17/07 A3028 RMK AO2 T01710071
KPTS 162255Z AUTO 22004KT 10SM CLR 18/06 A3028 RMK AO2 T01810060
KPTS 162235Z AUTO 20003KT 10SM CLR 19/05 A3029 RMK AO2 T01900049
KPTS 162215Z AUTO 00000KT 10SM CLR 19/05 A3029 RMK AO2 T01910047
KPTS 162155Z AUTO 24005KT 10SM CLR 19/05 A3030 RMK AO2 T01940050
KPTS 162135Z AUTO 23004KT 10SM CLR 19/05 A3030 RMK AO2 T01930049
KPTS 162115Z AUTO 21004KT 10SM CLR 20/05 A3031 RMK AO2 T01960054
KPTS 162055Z AUTO 24004KT 10SM CLR 19/05 A3032 RMK AO2 T01940048
KPTS 162035Z AUTO 00000KT 10SM CLR 20/06 A3033 RMK AO2 T01970055
KPTS 162015Z AUTO 00000KT 10SM CLR 19/05 A3033 RMK AO2 T01910049
KPTS 161955Z AUTO 20003KT 10SM CLR 19/05 A3034 RMK AO2 T01900048
KPTS 161935Z AUTO 00000KT 10SM CLR 19/05 A3035 RMK AO2 T01880048
KPTS 161915Z AUTO 23003KT 10SM CLR 18/04 A3036 RMK AO2 T01840044
KPTS 161855Z AUTO 00000KT 10SM CLR 18/04 A3038 RMK AO2 T01830042
KPTS 161835Z AUTO 29003KT 10SM CLR 18/05 A3039 RMK AO2 T01810046
KPTS 161815Z AUTO 23006KT 10SM CLR 18/05 A3040 RMK AO2 T01760046
KPTS 161755Z AUTO 00000KT 10SM CLR 17/04 A3041 RMK AO2 T01700040
KPTS 161735Z AUTO 21004KT 10SM CLR 17/04 A3042 RMK AO2 T01680041
KPTS 161715Z AUTO 22005KT 10SM CLR 17/04 A3043 RMK AO2 T01660043
KPTS 161655Z AUTO 24005KT 10SM CLR 16/05 A3043 RMK AO2 T01630045
KPTS 161635Z AUTO 22004KT 10SM CLR 16/06 A3043 RMK AO2 T01600057
KPTS 161615Z AUTO 20003KT 10SM CLR 15/06 A3043 RMK AO2 T01500062
KPTS 161555Z AUTO 20003KT 10SM CLR 15/08 A3044 RMK AO2 T01470076
KPTS 161535Z AUTO 00000KT 10SM CLR 14/08 A3044 RMK AO2 T01370079
KPTS 161515Z AUTO 22003KT 10SM CLR 13/08 A3044 RMK AO2 T01330080
KPTS 161455Z AUTO 22003KT 10SM CLR 12/08 A3044 RMK AO2 T01240080
KPTS 161435Z AUTO 00000KT 10SM CLR 11/08 A3043 RMK AO2 T01060082
KPTS 161415Z AUTO 00000KT 10SM CLR 10/09 A3043 RMK AO2 T00990094
KPTS 161355Z AUTO 00000KT 10SM CLR 08/08 A3042 RMK AO2 T00750076
KPTS 161335Z AUTO 00000KT 10SM CLR 06/06 A3042 RMK AO2 T00600062
KPTS 161315Z AUTO 00000KT 10SM CLR 05/05 A3042 RMK AO2 T00510051
KPTS 161255Z AUTO 00000KT 10SM CLR 05/05 A3041 RMK AO2 T00500050
KPTS 161235Z AUTO 00000KT 10SM CLR 05/05 A3041 RMK AO2 T00500050
KPTS 161215Z AUTO 00000KT 10SM CLR 05/05 A3041 RMK AO2 T00500050
KPTS 161155Z AUTO 00000KT 10SM CLR 05/05 A3041 RMK AO2 T00500050
KPTS 161135Z AUTO 00000KT 10SM CLR 05/05 A3041 RMK AO2 T00500050
KPTS 161115Z AUTO 00000KT 10SM CLR 05/05 A3041 RMK AO2 T00500050
KPTS 161055Z AUTO 00000KT 10SM CLR 05/05 A3040 RMK AO2 T00500050
KPTS 161035Z AUTO 00000KT 10SM CLR 05/05 A3040 RMK AO2 T00500050
KPTS 161015Z AUTO 00000KT 10SM CLR 05/05 A3040 RMK AO2 T00500050
KPTS 160955Z AUTO 00000KT 10SM CLR 05/05 A3039 RMK AO2 T00500050
KPTS 160935Z AUTO 00000KT 10SM CLR 05/05 A3039 RMK AO2 T00500051
KPTS 160915Z AUTO 00000KT 10SM CLR 05/05 A3039 RMK AO2 T00530054
KPTS 160855Z AUTO 00000KT 10SM CLR 06/06 A3039 RMK AO2 T00550056
KPTS 160835Z AUTO 00000KT 10SM CLR 06/06 A3039 RMK AO2 T00560057
KPTS 160815Z AUTO 00000KT 10SM CLR 06/06 A3039 RMK AO2 T00560057
KPTS 160755Z AUTO 00000KT 10SM CLR 06/06 A3039 RMK AO2 T00560057
KPTS 160735Z AUTO 00000KT 10SM CLR 06/06 A3039 RMK AO2 T00560057
KPTS 160715Z AUTO 00000KT 10SM CLR 06/06 A3039 RMK AO2 T00590060
KPTS 160655Z AUTO 00000KT 06/06 A3039 RMK AO2 T00630064
KPTS 160635Z AUTO 00000KT 10SM CLR 06/06 A3039 RMK AO2 T00630061
KPTS 160615Z AUTO 00000KT 10SM CLR 06/06 A3039 RMK AO2 T00630061
KPTS 160555Z AUTO 00000KT 10SM CLR 07/06 A3039 RMK AO2 T00660061
KPTS 160535Z AUTO 00000KT 10SM CLR 07/07 A3039 RMK AO2 T00680065
KPTS 160515Z AUTO 00000KT 10SM CLR 07/07 A3039 RMK AO2 T00710068
KPTS 160455Z AUTO 00000KT 10SM CLR 07/07 A3039 RMK AO2 T00710067
KPTS 160435Z AUTO 00000KT 10SM CLR 07/06 A3039 RMK AO2 T00710064
KPTS 160415Z AUTO 00000KT 10SM CLR 08/07 A3038 RMK AO2 T00750068
KPTS 160355Z AUTO 00000KT 10SM CLR 08/07 A3039 RMK AO2 T00760069
KPTS 160335Z AUTO 00000KT 10SM CLR 08/08 A3038 RMK AO2 T00820077
KPTS 160315Z AUTO 00000KT 10SM CLR 09/08 A3038 RMK AO2 T00850080
KPTS 160255Z AUTO 00000KT 10SM CLR 09/08 A3037 RMK AO2 T00900082
KPTS 160235Z AUTO 00000KT 10SM CLR 09/08 A3036 RMK AO2 T00910078
KPTS 160215Z AUTO 00000KT 10SM CLR 10/08 A3036 RMK AO2 T00970076
KPTS 160155Z AUTO 00000KT 10SM CLR 11/08 A3036 RMK AO2 T01050081
KPTS 160135Z AUTO 00000KT 10SM CLR 11/07 A3035 RMK AO2 T01050069
KPTS 160115Z AUTO 00000KT 10SM CLR 11/06 A3035 RMK AO2 T01050062
KPTS 160055Z AUTO 00000KT 10SM CLR 12/07 A3034 RMK AO2 T01210066
KPTS 160035Z AUTO 00000KT 10SM CLR 13/06 A3034 RMK AO2 T01330064
KPTS 160015Z AUTO 00000KT 10SM CLR 13/06 A3034 RMK AO2 T01330058
KPTS 152355Z AUTO 00000KT 10SM CLR 14/05 A3033 RMK AO2 T01440051
KPTS 152335Z AUTO 00000KT 10SM CLR 15/05 A3033 RMK AO2 T01510045
KPTS 152315Z AUTO 00000KT 10SM CLR 16/04 A3033 RMK AO2 T01610041
KPTS 152255Z AUTO 35004KT 10SM CLR 16/03 A3033 RMK AO2 T01620032
KPTS 152235Z AUTO 35005KT 10SM CLR 17/03 A3033 RMK AO2 T01670034
KPTS 152215Z AUTO 35006KT 10SM CLR 17/03 A3033 RMK AO2 T01680031
KPTS 152155Z AUTO 35008KT 10SM CLR 17/04 A3032 RMK AO2 T01740040
KPTS 152135Z AUTO 34006KT 10SM CLR 18/05 A3031 RMK AO2 T01750049
KPTS 152115Z AUTO 34008KT 10SM CLR 18/05 A3032 RMK AO2 T01750049
KPTS 152055Z AUTO 34007KT 10SM CLR 18/05 A3032 RMK AO2 T01750054
KPTS 152035Z AUTO 33007KT 290V010 10SM CLR 17/06 A3032 RMK AO2 T01730058
KPTS 152015Z AUTO 33007KT 310V020 10SM CLR 17/07 A3032 RMK AO2 T01700066
KPTS 151955Z AUTO 34005KT 10SM CLR 17/07 A3033 RMK AO2 T01680067
KPTS 151935Z AUTO 31007G14KT 10SM CLR 17/07 A3033 RMK AO2 T01670072
KPTS 151915Z AUTO 35006KT 320V020 10SM CLR 16/07 A3033 RMK AO2 T01630074
KPTS 151855Z AUTO 34005KT 310V020 10SM CLR 16/08 A3033 RMK AO2 T01620079
KPTS 151835Z AUTO 30005KT 10SM CLR 16/08 A3034 RMK AO2 T01610080
KPTS 151815Z AUTO 33007KT 310V020 10SM CLR 16/08 A3034 RMK AO2 T01580083
KPTS 151755Z AUTO 33005KT 10SM CLR 15/08 A3035 RMK AO2 T01480078
KPTS 151735Z AUTO 34005KT 10SM CLR 15/08 A3035 RMK AO2 T01470080
KPTS 151715Z AUTO 33005KT 10SM CLR 15/08 A3035 RMK AO2 T01470081
KPTS 151655Z AUTO 32007KT 280V020 10SM SCT026 14/08 A3035 RMK AO2 T01440081
KPTS 151635Z AUTO 02008KT 10SM SCT026 13/07 A3035 RMK AO2 T01340074
KPTS 151615Z AUTO 32006KT 310V020 10SM CLR 13/07 A3034 RMK AO2 T01330074
KPTS 151555Z AUTO 01007KT 10SM CLR 13/08 A3034 RMK AO2 T01330075
KPTS 151535Z AUTO 01009G14KT 10SM CLR 13/08 A3034 RMK AO2 T01330078
KPTS 151515Z AUTO 34007KT 310V030 10SM CLR 12/07 A3033 RMK AO2 T01240069
KPTS 151455Z AUTO 01011G16KT 10SM CLR 12/07 A3033 RMK AO2 T01200067
KPTS 151435Z AUTO 36007G18KT 10SM CLR 11/07 A3033 RMK AO2 LTG DSNT SE T01130065
KPTS 151415Z AUTO 01010G16KT 10SM CLR 11/06 A3032 RMK AO2 T01070063